sensor_id;sensor_type;location;lat;lon;timestamp;P1;durP1;ratioP1;P2;durP2;ratioP2
2055;SDS011;1033;52.560;13.374;2022-11-20T00:00:12;15.55;;;9.43;;
2055;SDS011;1033;52.560;13.374;2022-11-20T00:02:43;13.52;;;8.90;;
2055;SDS011;1033;52.560;13.374;2022-11-20T00:05:12;20.35;;;10.10;;
2055;SDS011;1033;52.560;13.374;2022-11-20T00:07:41;13.00;;;8.40;;
2055;SDS011;1033;52.560;13.374;2022-11-20T00:10:10;13.82;;;9.10;;
2055;SDS011;1033;52.560;13.374;2022-11-20T00:12:40;19.95;;;10.70;;
2055;SDS011;1033;52.560;13.374;2022-11-20T00:15:09;10.93;;;8.52;;
2055;SDS011;1033;52.560;13.374;2022-11-20T00:17:38;12.52;;;8.52;;
2055;SDS011;1033;52.560;13.374;2022-11-20T00:20:10;11.00;;;8.52;;
2055;SDS011;1033;52.560;13.374;2022-11-20T00:22:41;13.30;;;8.98;;
2055;SDS011;1033;52.560;13.374;2022-11-20T00:25:10;14.82;;;7.97;;
2055;SDS011;1033;52.560;13.374;2022-11-20T00:27:44;14.65;;;9.27;;
2055;SDS011;1033;52.560;13.374;2022-11-20T00:30:14;16.58;;;8.52;;
2055;SDS011;1033;52.560;13.374;2022-11-20T00:32:42;14.00;;;7.35;;
2055;SDS011;1033;52.560;13.374;2022-11-20T00:35:11;11.45;;;8.00;;
2055;SDS011;1033;52.560;13.374;2022-11-20T00:37:40;13.15;;;8.95;;
2055;SDS011;1033;52.560;13.374;2022-11-20T00:40:13;17.92;;;8.90;;
2055;SDS011;1033;52.560;13.374;2022-11-20T00:42:46;14.13;;;7.68;;
2055;SDS011;1033;52.560;13.374;2022-11-20T00:45:14;11.18;;;6.70;;
2055;SDS011;1033;52.560;13.374;2022-11-20T00:47:43;15.55;;;9.73;;
2055;SDS011;1033;52.560;13.374;2022-11-20T00:50:12;21.98;;;9.80;;
2055;SDS011;1033;52.560;13.374;2022-11-20T00:52:46;17.85;;;9.43;;
2055;SDS011;1033;52.560;13.374;2022-11-20T00:55:15;14.13;;;9.20;;
2055;SDS011;1033;52.560;13.374;2022-11-20T00:57:43;10.63;;;7.47;;
2055;SDS011;1033;52.560;13.374;2022-11-20T01:00:14;11.60;;;8.15;;
2055;SDS011;1033;52.560;13.374;2022-11-20T01:02:43;16.98;;;8.32;;
2055;SDS011;1033;52.560;13.374;2022-11-20T01:05:12;12.38;;;9.82;;
2055;SDS011;1033;52.560;13.374;2022-11-20T01:07:41;14.07;;;9.27;;
2055;SDS011;1033;52.560;13.374;2022-11-20T01:10:10;14.90;;;9.15;;
2055;SDS011;1033;52.560;13.374;2022-11-20T01:12:39;17.50;;;8.48;;
2055;SDS011;1033;52.560;13.374;2022-11-20T01:15:09;11.88;;;8.38;;
2055;SDS011;1033;52.560;13.374;2022-11-20T01:17:38;12.20;;;8.65;;
2055;SDS011;1033;52.560;13.374;2022-11-20T01:20:07;13.18;;;8.30;;
2055;SDS011;1033;52.560;13.374;2022-11-20T01:22:37;12.32;;;8.75;;
2055;SDS011;1033;52.560;13.374;2022-11-20T01:25:06;12.82;;;8.85;;
2055;SDS011;1033;52.560;13.374;2022-11-20T01:27:35;15.10;;;7.40;;
2055;SDS011;1033;52.560;13.374;2022-11-20T01:30:05;19.67;;;8.75;;
2055;SDS011;1033;52.560;13.374;2022-11-20T01:32:36;13.43;;;8.18;;
2055;SDS011;1033;52.560;13.374;2022-11-20T01:35:05;14.52;;;8.27;;
2055;SDS011;1033;52.560;13.374;2022-11-20T01:37:36;13.90;;;9.02;;
2055;SDS011;1033;52.560;13.374;2022-11-20T01:40:05;17.98;;;8.68;;
2055;SDS011;1033;52.560;13.374;2022-11-20T01:42:34;13.73;;;8.90;;
2055;SDS011;1033;52.560;13.374;2022-11-20T01:48:22;21.45;;;9.38;;
2055;SDS011;1033;52.560;13.374;2022-11-20T01:50:54;13.27;;;8.18;;
2055;SDS011;1033;52.560;13.374;2022-11-20T01:53:25;21.58;;;10.23;;
2055;SDS011;1033;52.560;13.374;2022-11-20T01:56:00;12.68;;;7.47;;
2055;SDS011;1033;52.560;13.374;2022-11-20T01:58:33;20.45;;;10.13;;
2055;SDS011;1033;52.560;13.374;2022-11-20T02:01:06;15.52;;;8.40;;
2055;SDS011;1033;52.560;13.374;2022-11-20T02:03:37;14.20;;;8.40;;
2055;SDS011;1033;52.560;13.374;2022-11-20T02:06:08;15.45;;;9.52;;
2055;SDS011;1033;52.560;13.374;2022-11-20T02:08:42;16.13;;;9.07;;
2055;SDS011;1033;52.560;13.374;2022-11-20T02:11:11;11.88;;;7.43;;
2055;SDS011;1033;52.560;13.374;2022-11-20T02:13:40;15.68;;;8.93;;
2055;SDS011;1033;52.560;13.374;2022-11-20T02:16:13;18.35;;;11.65;;
2055;SDS011;1033;52.560;13.374;2022-11-20T02:18:46;13.70;;;8.20;;
2055;SDS011;1033;52.560;13.374;2022-11-20T02:21:20;13.10;;;8.85;;
2055;SDS011;1033;52.560;13.374;2022-11-20T02:26:44;14.77;;;8.15;;
2055;SDS011;1033;52.560;13.374;2022-11-20T02:29:17;11.77;;;8.27;;
2055;SDS011;1033;52.560;13.374;2022-11-20T02:31:51;15.05;;;10.00;;
2055;SDS011;1033;52.560;13.374;2022-11-20T02:34:22;14.70;;;8.00;;
2055;SDS011;1033;52.560;13.374;2022-11-20T02:36:51;15.05;;;8.80;;
2055;SDS011;1033;52.560;13.374;2022-11-20T02:39:22;15.48;;;9.60;;
2055;SDS011;1033;52.560;13.374;2022-11-20T02:41:55;15.65;;;9.57;;
2055;SDS011;1033;52.560;13.374;2022-11-20T02:44:24;14.13;;;10.52;;
2055;SDS011;1033;52.560;13.374;2022-11-20T02:46:53;15.57;;;9.55;;
2055;SDS011;1033;52.560;13.374;2022-11-20T02:49:25;17.63;;;11.52;;
2055;SDS011;1033;52.560;13.374;2022-11-20T02:51:54;13.20;;;10.07;;
2055;SDS011;1033;52.560;13.374;2022-11-20T02:54:25;15.77;;;8.93;;
2055;SDS011;1033;52.560;13.374;2022-11-20T02:56:54;18.08;;;10.57;;
2055;SDS011;1033;52.560;13.374;2022-11-20T02:59:23;12.73;;;8.88;;
2055;SDS011;1033;52.560;13.374;2022-11-20T03:01:51;18.20;;;10.05;;
2055;SDS011;1033;52.560;13.374;2022-11-20T03:04:20;22.75;;;12.23;;
2055;SDS011;1033;52.560;13.374;2022-11-20T03:06:49;29.02;;;9.90;;
2055;SDS011;1033;52.560;13.374;2022-11-20T03:09:18;16.27;;;10.70;;
2055;SDS011;1033;52.560;13.374;2022-11-20T03:11:49;14.73;;;9.63;;
2055;SDS011;1033;52.560;13.374;2022-11-20T03:14:17;22.52;;;10.43;;
2055;SDS011;1033;52.560;13.374;2022-11-20T03:16:46;14.32;;;10.80;;
2055;SDS011;1033;52.560;13.374;2022-11-20T03:19:15;15.80;;;8.95;;
2055;SDS011;1033;52.560;13.374;2022-11-20T03:21:45;14.57;;;8.30;;
2055;SDS011;1033;52.560;13.374;2022-11-20T03:24:13;18.63;;;10.60;;
2055;SDS011;1033;52.560;13.374;2022-11-20T03:26:42;14.85;;;9.75;;
2055;SDS011;1033;52.560;13.374;2022-11-20T03:29:12;14.23;;;8.40;;
2055;SDS011;1033;52.560;13.374;2022-11-20T03:31:41;17.45;;;8.50;;
2055;SDS011;1033;52.560;13.374;2022-11-20T03:34:11;14.13;;;8.88;;
2055;SDS011;1033;52.560;13.374;2022-11-20T03:36:40;19.13;;;10.05;;
2055;SDS011;1033;52.560;13.374;2022-11-20T03:39:10;17.80;;;8.73;;
2055;SDS011;1033;52.560;13.374;2022-11-20T03:41:39;13.30;;;9.45;;
2055;SDS011;1033;52.560;13.374;2022-11-20T03:44:10;16.63;;;10.35;;
2055;SDS011;1033;52.560;13.374;2022-11-20T03:46:41;16.95;;;9.60;;
2055;SDS011;1033;52.560;13.374;2022-11-20T03:49:09;21.02;;;10.98;;
2055;SDS011;1033;52.560;13.374;2022-11-20T03:51:38;15.93;;;9.00;;
2055;SDS011;1033;52.560;13.374;2022-11-20T03:54:07;13.50;;;9.15;;
2055;SDS011;1033;52.560;13.374;2022-11-20T03:56:37;15.30;;;10.40;;
2055;SDS011;1033;52.560;13.374;2022-11-20T04:02:38;15.63;;;9.48;;
2055;SDS011;1033;52.560;13.374;2022-11-20T04:05:07;15.15;;;9.35;;
2055;SDS011;1033;52.560;13.374;2022-11-20T04:07:36;13.63;;;9.27;;
2055;SDS011;1033;52.560;13.374;2022-11-20T04:10:05;14.75;;;10.15;;
2055;SDS011;1033;52.560;13.374;2022-11-20T04:12:34;20.13;;;10.23;;
2055;SDS011;1033;52.560;13.374;2022-11-20T04:15:03;15.10;;;10.35;;
2055;SDS011;1033;52.560;13.374;2022-11-20T04:17:33;14.43;;;9.73;;
2055;SDS011;1033;52.560;13.374;2022-11-20T04:20:03;19.70;;;11.20;;
2055;SDS011;1033;52.560;13.374;2022-11-20T04:22:33;19.75;;;10.23;;
2055;SDS011;1033;52.560;13.374;2022-11-20T04:25:02;16.35;;;9.93;;
2055;SDS011;1033;52.560;13.374;2022-11-20T04:27:31;15.00;;;9.90;;
2055;SDS011;1033;52.560;13.374;2022-11-20T04:30:00;18.60;;;10.50;;
2055;SDS011;1033;52.560;13.374;2022-11-20T04:32:29;16.15;;;9.27;;
2055;SDS011;1033;52.560;13.374;2022-11-20T04:34:58;16.65;;;9.13;;
2055;SDS011;1033;52.560;13.374;2022-11-20T04:37:28;14.23;;;9.65;;
2055;SDS011;1033;52.560;13.374;2022-11-20T04:39:57;16.90;;;10.52;;
2055;SDS011;1033;52.560;13.374;2022-11-20T04:42:26;14.55;;;10.23;;
2055;SDS011;1033;52.560;13.374;2022-11-20T04:44:58;14.38;;;10.13;;
2055;SDS011;1033;52.560;13.374;2022-11-20T04:47:27;19.35;;;10.65;;
2055;SDS011;1033;52.560;13.374;2022-11-20T04:49:56;15.70;;;10.35;;
2055;SDS011;1033;52.560;13.374;2022-11-20T04:52:25;27.25;;;12.95;;
2055;SDS011;1033;52.560;13.374;2022-11-20T04:54:55;15.05;;;9.80;;
2055;SDS011;1033;52.560;13.374;2022-11-20T04:57:24;24.15;;;12.20;;
2055;SDS011;1033;52.560;13.374;2022-11-20T04:59:53;23.48;;;10.88;;
2055;SDS011;1033;52.560;13.374;2022-11-20T05:02:22;15.52;;;11.63;;
2055;SDS011;1033;52.560;13.374;2022-11-20T05:04:51;11.57;;;10.32;;
2055;SDS011;1033;52.560;13.374;2022-11-20T05:07:20;13.55;;;10.10;;
2055;SDS011;1033;52.560;13.374;2022-11-20T05:09:49;13.07;;;8.93;;
2055;SDS011;1033;52.560;13.374;2022-11-20T05:12:20;18.67;;;9.93;;
2055;SDS011;1033;52.560;13.374;2022-11-20T05:14:49;19.75;;;12.02;;
2055;SDS011;1033;52.560;13.374;2022-11-20T05:17:17;20.17;;;12.63;;
2055;SDS011;1033;52.560;13.374;2022-11-20T05:19:46;17.42;;;9.45;;
2055;SDS011;1033;52.560;13.374;2022-11-20T05:22:18;16.30;;;11.05;;
2055;SDS011;1033;52.560;13.374;2022-11-20T05:24:47;20.33;;;8.50;;
2055;SDS011;1033;52.560;13.374;2022-11-20T05:27:16;17.05;;;11.93;;
2055;SDS011;1033;52.560;13.374;2022-11-20T05:29:46;19.73;;;11.60;;
2055;SDS011;1033;52.560;13.374;2022-11-20T05:32:15;17.40;;;9.85;;
2055;SDS011;1033;52.560;13.374;2022-11-20T05:34:44;21.77;;;11.45;;
2055;SDS011;1033;52.560;13.374;2022-11-20T05:37:13;17.65;;;10.65;;
2055;SDS011;1033;52.560;13.374;2022-11-20T05:39:42;14.60;;;8.90;;
2055;SDS011;1033;52.560;13.374;2022-11-20T05:42:11;22.15;;;11.48;;
2055;SDS011;1033;52.560;13.374;2022-11-20T05:45:00;16.60;;;9.38;;
2055;SDS011;1033;52.560;13.374;2022-11-20T05:47:31;11.68;;;7.72;;
2055;SDS011;1033;52.560;13.374;2022-11-20T05:50:02;18.52;;;12.07;;
2055;SDS011;1033;52.560;13.374;2022-11-20T05:52:32;16.13;;;10.52;;
2055;SDS011;1033;52.560;13.374;2022-11-20T05:55:00;16.33;;;10.07;;
2055;SDS011;1033;52.560;13.374;2022-11-20T05:57:30;17.23;;;11.13;;
2055;SDS011;1033;52.560;13.374;2022-11-20T06:00:00;16.95;;;11.43;;
2055;SDS011;1033;52.560;13.374;2022-11-20T06:02:30;12.50;;;8.90;;
2055;SDS011;1033;52.560;13.374;2022-11-20T06:05:01;16.15;;;9.48;;
2055;SDS011;1033;52.560;13.374;2022-11-20T06:07:30;16.40;;;10.20;;
2055;SDS011;1033;52.560;13.374;2022-11-20T06:09:59;14.27;;;9.38;;
2055;SDS011;1033;52.560;13.374;2022-11-20T06:12:30;17.20;;;10.73;;
2055;SDS011;1033;52.560;13.374;2022-11-20T06:15:02;23.35;;;10.82;;
2055;SDS011;1033;52.560;13.374;2022-11-20T06:17:31;15.80;;;10.40;;
2055;SDS011;1033;52.560;13.374;2022-11-20T06:20:00;14.30;;;9.35;;
2055;SDS011;1033;52.560;13.374;2022-11-20T06:22:29;19.00;;;11.23;;
2055;SDS011;1033;52.560;13.374;2022-11-20T06:24:59;18.88;;;11.05;;
2055;SDS011;1033;52.560;13.374;2022-11-20T06:27:28;12.25;;;9.10;;
2055;SDS011;1033;52.560;13.374;2022-11-20T06:29:57;20.58;;;10.55;;
2055;SDS011;1033;52.560;13.374;2022-11-20T06:32:27;19.33;;;9.90;;
2055;SDS011;1033;52.560;13.374;2022-11-20T06:34:56;23.38;;;11.05;;
2055;SDS011;1033;52.560;13.374;2022-11-20T06:37:25;18.13;;;10.68;;
2055;SDS011;1033;52.560;13.374;2022-11-20T06:39:54;17.35;;;11.25;;
2055;SDS011;1033;52.560;13.374;2022-11-20T06:42:23;13.45;;;9.50;;
2055;SDS011;1033;52.560;13.374;2022-11-20T06:44:51;14.68;;;10.23;;
2055;SDS011;1033;52.560;13.374;2022-11-20T06:47:20;15.43;;;9.88;;
2055;SDS011;1033;52.560;13.374;2022-11-20T06:49:51;17.63;;;10.50;;
2055;SDS011;1033;52.560;13.374;2022-11-20T06:52:20;15.13;;;9.85;;
2055;SDS011;1033;52.560;13.374;2022-11-20T06:54:50;18.35;;;9.32;;
2055;SDS011;1033;52.560;13.374;2022-11-20T06:57:18;15.73;;;8.90;;
2055;SDS011;1033;52.560;13.374;2022-11-20T06:59:47;18.58;;;12.18;;
2055;SDS011;1033;52.560;13.374;2022-11-20T07:02:16;17.45;;;11.48;;
2055;SDS011;1033;52.560;13.374;2022-11-20T07:04:46;15.15;;;8.65;;
2055;SDS011;1033;52.560;13.374;2022-11-20T07:07:17;18.40;;;11.82;;
2055;SDS011;1033;52.560;13.374;2022-11-20T07:09:46;17.38;;;10.30;;
2055;SDS011;1033;52.560;13.374;2022-11-20T07:12:15;21.05;;;12.02;;
2055;SDS011;1033;52.560;13.374;2022-11-20T07:14:44;22.55;;;11.98;;
2055;SDS011;1033;52.560;13.374;2022-11-20T07:17:13;22.20;;;12.90;;
2055;SDS011;1033;52.560;13.374;2022-11-20T07:19:42;18.15;;;10.77;;
2055;SDS011;1033;52.560;13.374;2022-11-20T07:22:11;23.67;;;10.40;;
2055;SDS011;1033;52.560;13.374;2022-11-20T07:24:41;20.10;;;12.77;;
2055;SDS011;1033;52.560;13.374;2022-11-20T07:27:11;18.30;;;11.35;;
2055;SDS011;1033;52.560;13.374;2022-11-20T07:29:40;16.67;;;11.45;;
2055;SDS011;1033;52.560;13.374;2022-11-20T07:32:09;22.27;;;11.48;;
2055;SDS011;1033;52.560;13.374;2022-11-20T07:34:38;16.75;;;12.38;;
2055;SDS011;1033;52.560;13.374;2022-11-20T07:37:07;24.67;;;11.85;;
2055;SDS011;1033;52.560;13.374;2022-11-20T07:39:36;15.52;;;9.93;;
2055;SDS011;1033;52.560;13.374;2022-11-20T07:42:06;22.77;;;13.43;;
2055;SDS011;1033;52.560;13.374;2022-11-20T07:44:36;21.05;;;12.13;;
2055;SDS011;1033;52.560;13.374;2022-11-20T07:47:06;23.02;;;11.73;;
2055;SDS011;1033;52.560;13.374;2022-11-20T07:49:34;16.27;;;12.52;;
2055;SDS011;1033;52.560;13.374;2022-11-20T07:52:03;16.88;;;10.10;;
2055;SDS011;1033;52.560;13.374;2022-11-20T07:54:32;21.95;;;12.80;;
2055;SDS011;1033;52.560;13.374;2022-11-20T07:57:01;17.27;;;10.70;;
2055;SDS011;1033;52.560;13.374;2022-11-20T07:59:32;17.52;;;10.68;;
2055;SDS011;1033;52.560;13.374;2022-11-20T08:02:00;22.90;;;11.40;;
2055;SDS011;1033;52.560;13.374;2022-11-20T08:04:29;20.90;;;12.55;;
2055;SDS011;1033;52.560;13.374;2022-11-20T08:06:59;14.25;;;9.73;;
2055;SDS011;1033;52.560;13.374;2022-11-20T08:09:28;19.42;;;11.40;;
2055;SDS011;1033;52.560;13.374;2022-11-20T08:11:57;20.60;;;10.18;;
2055;SDS011;1033;52.560;13.374;2022-11-20T08:14:45;15.50;;;10.25;;
2055;SDS011;1033;52.560;13.374;2022-11-20T08:17:14;17.05;;;9.75;;
2055;SDS011;1033;52.560;13.374;2022-11-20T08:19:43;27.13;;;12.15;;
2055;SDS011;1033;52.560;13.374;2022-11-20T08:22:12;22.80;;;13.20;;
2055;SDS011;1033;52.560;13.374;2022-11-20T08:24:40;20.33;;;14.40;;
2055;SDS011;1033;52.560;13.374;2022-11-20T08:27:10;21.50;;;11.57;;
2055;SDS011;1033;52.560;13.374;2022-11-20T08:29:39;22.92;;;14.02;;
2055;SDS011;1033;52.560;13.374;2022-11-20T08:32:09;24.40;;;13.05;;
2055;SDS011;1033;52.560;13.374;2022-11-20T08:34:38;19.50;;;12.38;;
2055;SDS011;1033;52.560;13.374;2022-11-20T08:37:07;21.15;;;11.35;;
2055;SDS011;1033;52.560;13.374;2022-11-20T08:39:36;21.38;;;12.95;;
2055;SDS011;1033;52.560;13.374;2022-11-20T08:42:06;24.35;;;14.38;;
2055;SDS011;1033;52.560;13.374;2022-11-20T08:44:35;20.77;;;11.30;;
2055;SDS011;1033;52.560;13.374;2022-11-20T08:47:04;19.73;;;13.98;;
2055;SDS011;1033;52.560;13.374;2022-11-20T08:49:35;16.92;;;11.25;;
2055;SDS011;1033;52.560;13.374;2022-11-20T08:52:04;20.13;;;12.48;;
2055;SDS011;1033;52.560;13.374;2022-11-20T08:54:32;21.83;;;13.93;;
2055;SDS011;1033;52.560;13.374;2022-11-20T08:57:01;20.60;;;12.20;;
2055;SDS011;1033;52.560;13.374;2022-11-20T08:59:30;17.50;;;10.65;;
2055;SDS011;1033;52.560;13.374;2022-11-20T09:02:19;19.27;;;11.23;;
2055;SDS011;1033;52.560;13.374;2022-11-20T09:04:49;14.95;;;9.25;;
2055;SDS011;1033;52.560;13.374;2022-11-20T09:07:19;15.05;;;10.48;;
2055;SDS011;1033;52.560;13.374;2022-11-20T09:09:48;20.45;;;12.50;;
2055;SDS011;1033;52.560;13.374;2022-11-20T09:12:37;21.00;;;11.50;;
2055;SDS011;1033;52.560;13.374;2022-11-20T09:15:07;22.02;;;11.05;;
2055;SDS011;1033;52.560;13.374;2022-11-20T09:17:36;19.40;;;10.60;;
2055;SDS011;1033;52.560;13.374;2022-11-20T09:20:08;16.98;;;11.40;;
2055;SDS011;1033;52.560;13.374;2022-11-20T09:22:39;17.15;;;9.98;;
2055;SDS011;1033;52.560;13.374;2022-11-20T09:25:08;18.23;;;10.77;;
2055;SDS011;1033;52.560;13.374;2022-11-20T09:27:37;13.93;;;9.77;;
2055;SDS011;1033;52.560;13.374;2022-11-20T09:30:08;16.40;;;10.82;;
2055;SDS011;1033;52.560;13.374;2022-11-20T09:32:38;19.27;;;11.00;;
2055;SDS011;1033;52.560;13.374;2022-11-20T09:35:09;15.15;;;10.07;;
2055;SDS011;1033;52.560;13.374;2022-11-20T09:40:35;16.95;;;11.77;;
2055;SDS011;1033;52.560;13.374;2022-11-20T09:43:09;12.27;;;9.32;;
2055;SDS011;1033;52.560;13.374;2022-11-20T09:45:49;14.43;;;11.10;;
2055;SDS011;1033;52.560;13.374;2022-11-20T09:48:26;21.30;;;10.70;;
2055;SDS011;1033;52.560;13.374;2022-11-20T09:51:14;18.60;;;11.10;;
2055;SDS011;1033;52.560;13.374;2022-11-20T09:53:55;22.77;;;14.25;;
2055;SDS011;1033;52.560;13.374;2022-11-20T09:56:34;17.10;;;9.60;;
2055;SDS011;1033;52.560;13.374;2022-11-20T09:59:11;14.10;;;10.90;;
2055;SDS011;1033;52.560;13.374;2022-11-20T10:01:53;18.08;;;11.25;;
2055;SDS011;1033;52.560;13.374;2022-11-20T10:04:24;18.05;;;10.57;;
2055;SDS011;1033;52.560;13.374;2022-11-20T10:06:55;19.05;;;14.05;;
2055;SDS011;1033;52.560;13.374;2022-11-20T10:09:50;23.90;;;14.68;;
2055;SDS011;1033;52.560;13.374;2022-11-20T10:12:23;20.38;;;13.32;;
2055;SDS011;1033;52.560;13.374;2022-11-20T10:15:01;21.90;;;12.35;;
2055;SDS011;1033;52.560;13.374;2022-11-20T10:17:53;14.73;;;11.73;;
2055;SDS011;1033;52.560;13.374;2022-11-20T10:20:35;18.05;;;12.73;;
2055;SDS011;1033;52.560;13.374;2022-11-20T10:23:26;18.23;;;11.05;;
2055;SDS011;1033;52.560;13.374;2022-11-20T10:26:14;20.95;;;11.35;;
2055;SDS011;1033;52.560;13.374;2022-11-20T10:28:53;18.40;;;13.05;;
2055;SDS011;1033;52.560;13.374;2022-11-20T10:31:35;17.90;;;11.90;;
2055;SDS011;1033;52.560;13.374;2022-11-20T10:34:06;14.07;;;10.32;;
2055;SDS011;1033;52.560;13.374;2022-11-20T10:36:49;17.77;;;10.65;;
2055;SDS011;1033;52.560;13.374;2022-11-20T10:39:26;16.20;;;11.00;;
2055;SDS011;1033;52.560;13.374;2022-11-20T10:42:01;17.30;;;11.25;;
2055;SDS011;1033;52.560;13.374;2022-11-20T10:44:36;16.48;;;12.23;;
2055;SDS011;1033;52.560;13.374;2022-11-20T10:47:30;21.50;;;12.05;;
2055;SDS011;1033;52.560;13.374;2022-11-20T10:50:01;15.65;;;9.95;;
2055;SDS011;1033;52.560;13.374;2022-11-20T10:52:35;24.38;;;11.15;;
2055;SDS011;1033;52.560;13.374;2022-11-20T10:55:15;15.80;;;10.93;;
2055;SDS011;1033;52.560;13.374;2022-11-20T10:57:54;13.63;;;10.30;;
2055;SDS011;1033;52.560;13.374;2022-11-20T11:00:30;19.95;;;11.35;;
2055;SDS011;1033;52.560;13.374;2022-11-20T11:03:00;17.67;;;11.23;;
2055;SDS011;1033;52.560;13.374;2022-11-20T11:05:32;14.00;;;8.52;;
2055;SDS011;1033;52.560;13.374;2022-11-20T11:08:08;21.48;;;10.52;;
2055;SDS011;1033;52.560;13.374;2022-11-20T11:10:44;18.60;;;12.18;;
2055;SDS011;1033;52.560;13.374;2022-11-20T11:13:21;17.85;;;10.52;;
2055;SDS011;1033;52.560;13.374;2022-11-20T11:15:51;13.88;;;9.70;;
2055;SDS011;1033;52.560;13.374;2022-11-20T11:18:24;15.68;;;10.45;;
2055;SDS011;1033;52.560;13.374;2022-11-20T11:20:56;17.73;;;11.30;;
2055;SDS011;1033;52.560;13.374;2022-11-20T11:23:31;16.02;;;10.60;;
2055;SDS011;1033;52.560;13.374;2022-11-20T11:26:04;17.15;;;10.10;;
2055;SDS011;1033;52.560;13.374;2022-11-20T11:28:34;14.27;;;8.63;;
2055;SDS011;1033;52.560;13.374;2022-11-20T11:31:03;15.23;;;9.63;;
2055;SDS011;1033;52.560;13.374;2022-11-20T11:33:32;16.17;;;9.15;;
2055;SDS011;1033;52.560;13.374;2022-11-20T11:36:01;15.13;;;8.05;;
2055;SDS011;1033;52.560;13.374;2022-11-20T11:38:42;21.98;;;9.48;;
2055;SDS011;1033;52.560;13.374;2022-11-20T11:41:15;12.98;;;7.85;;
2055;SDS011;1033;52.560;13.374;2022-11-20T11:43:50;14.57;;;8.93;;
2055;SDS011;1033;52.560;13.374;2022-11-20T11:46:40;12.40;;;8.77;;
2055;SDS011;1033;52.560;13.374;2022-11-20T11:49:20;12.60;;;9.48;;
2055;SDS011;1033;52.560;13.374;2022-11-20T11:54:42;15.30;;;9.25;;
2055;SDS011;1033;52.560;13.374;2022-11-20T11:57:20;9.25;;;7.85;;
2055;SDS011;1033;52.560;13.374;2022-11-20T11:59:59;11.95;;;8.18;;
2055;SDS011;1033;52.560;13.374;2022-11-20T12:02:35;13.63;;;10.75;;
2055;SDS011;1033;52.560;13.374;2022-11-20T12:05:23;17.63;;;9.82;;
2055;SDS011;1033;52.560;13.374;2022-11-20T12:07:56;17.05;;;9.30;;
2055;SDS011;1033;52.560;13.374;2022-11-20T12:10:40;16.02;;;7.95;;
2055;SDS011;1033;52.560;13.374;2022-11-20T12:13:29;12.45;;;9.70;;
2055;SDS011;1033;52.560;13.374;2022-11-20T12:16:17;12.48;;;7.25;;
2055;SDS011;1033;52.560;13.374;2022-11-20T12:18:48;22.98;;;10.05;;
2055;SDS011;1033;52.560;13.374;2022-11-20T12:24:44;27.67;;;10.32;;
2055;SDS011;1033;52.560;13.374;2022-11-20T12:27:31;14.90;;;8.85;;
2055;SDS011;1033;52.560;13.374;2022-11-20T12:30:31;14.05;;;8.55;;
2055;SDS011;1033;52.560;13.374;2022-11-20T12:36:19;17.33;;;8.82;;
2055;SDS011;1033;52.560;13.374;2022-11-20T12:39:07;16.80;;;10.00;;
2055;SDS011;1033;52.560;13.374;2022-11-20T12:45:28;16.55;;;8.20;;
2055;SDS011;1033;52.560;13.374;2022-11-20T12:48:33;13.27;;;8.38;;
2055;SDS011;1033;52.560;13.374;2022-11-20T12:51:18;10.18;;;8.20;;
2055;SDS011;1033;52.560;13.374;2022-11-20T12:54:11;19.33;;;8.80;;
2055;SDS011;1033;52.560;13.374;2022-11-20T12:57:21;17.23;;;8.38;;
2055;SDS011;1033;52.560;13.374;2022-11-20T13:00:14;12.75;;;8.02;;
2055;SDS011;1033;52.560;13.374;2022-11-20T13:06:05;10.18;;;8.00;;
2055;SDS011;1033;52.560;13.374;2022-11-20T13:08:48;21.40;;;7.97;;
2055;SDS011;1033;52.560;13.374;2022-11-20T13:11:24;14.18;;;8.65;;
2055;SDS011;1033;52.560;13.374;2022-11-20T13:14:06;11.10;;;5.72;;
2055;SDS011;1033;52.560;13.374;2022-11-20T13:16:54;10.70;;;7.68;;
2055;SDS011;1033;52.560;13.374;2022-11-20T13:19:36;10.80;;;8.48;;
2055;SDS011;1033;52.560;13.374;2022-11-20T13:22:07;13.52;;;8.05;;
2055;SDS011;1033;52.560;13.374;2022-11-20T13:24:39;7.90;;;5.82;;
2055;SDS011;1033;52.560;13.374;2022-11-20T13:27:23;14.73;;;8.27;;
2055;SDS011;1033;52.560;13.374;2022-11-20T13:30:00;13.55;;;8.13;;
2055;SDS011;1033;52.560;13.374;2022-11-20T13:32:51;12.93;;;7.68;;
2055;SDS011;1033;52.560;13.374;2022-11-20T13:35:31;9.48;;;6.53;;
2055;SDS011;1033;52.560;13.374;2022-11-20T13:38:06;16.67;;;7.28;;
2055;SDS011;1033;52.560;13.374;2022-11-20T13:40:38;10.02;;;6.72;;
2055;SDS011;1033;52.560;13.374;2022-11-20T13:43:28;15.10;;;8.75;;
2055;SDS011;1033;52.560;13.374;2022-11-20T13:46:05;10.55;;;7.65;;
2055;SDS011;1033;52.560;13.374;2022-11-20T13:48:38;12.10;;;7.18;;
2055;SDS011;1033;52.560;13.374;2022-11-20T13:51:14;12.52;;;7.60;;
2055;SDS011;1033;52.560;13.374;2022-11-20T13:54:04;12.07;;;6.30;;
2055;SDS011;1033;52.560;13.374;2022-11-20T13:57:11;17.60;;;7.10;;
2055;SDS011;1033;52.560;13.374;2022-11-20T13:59:56;18.10;;;7.63;;
2055;SDS011;1033;52.560;13.374;2022-11-20T14:02:36;15.43;;;8.18;;
2055;SDS011;1033;52.560;13.374;2022-11-20T14:05:06;10.45;;;7.53;;
2055;SDS011;1033;52.560;13.374;2022-11-20T14:07:50;9.13;;;6.90;;
2055;SDS011;1033;52.560;13.374;2022-11-20T14:10:21;12.75;;;7.88;;
2055;SDS011;1033;52.560;13.374;2022-11-20T14:12:57;9.98;;;7.25;;
2055;SDS011;1033;52.560;13.374;2022-11-20T14:15:37;11.35;;;7.80;;
2055;SDS011;1033;52.560;13.374;2022-11-20T14:18:12;16.30;;;7.72;;
2055;SDS011;1033;52.560;13.374;2022-11-20T14:20:46;10.77;;;6.70;;
2055;SDS011;1033;52.560;13.374;2022-11-20T14:23:24;11.80;;;8.18;;
2055;SDS011;1033;52.560;13.374;2022-11-20T14:25:57;11.85;;;7.53;;
2055;SDS011;1033;52.560;13.374;2022-11-20T14:28:26;14.90;;;8.23;;
2055;SDS011;1033;52.560;13.374;2022-11-20T14:30:57;16.98;;;9.73;;
2055;SDS011;1033;52.560;13.374;2022-11-20T14:33:26;11.35;;;7.00;;
2055;SDS011;1033;52.560;13.374;2022-11-20T14:35:55;13.05;;;7.03;;
2055;SDS011;1033;52.560;13.374;2022-11-20T14:38:27;21.50;;;8.40;;
2055;SDS011;1033;52.560;13.374;2022-11-20T14:41:06;10.38;;;7.20;;
2055;SDS011;1033;52.560;13.374;2022-11-20T14:43:35;10.90;;;8.77;;
2055;SDS011;1033;52.560;13.374;2022-11-20T14:46:06;14.73;;;7.30;;
2055;SDS011;1033;52.560;13.374;2022-11-20T14:48:40;11.05;;;7.97;;
2055;SDS011;1033;52.560;13.374;2022-11-20T14:51:22;12.27;;;7.55;;
2055;SDS011;1033;52.560;13.374;2022-11-20T14:54:08;10.23;;;7.13;;
2055;SDS011;1033;52.560;13.374;2022-11-20T14:56:39;9.68;;;7.25;;
2055;SDS011;1033;52.560;13.374;2022-11-20T14:59:08;10.15;;;7.20;;
2055;SDS011;1033;52.560;13.374;2022-11-20T15:01:37;11.63;;;7.00;;
2055;SDS011;1033;52.560;13.374;2022-11-20T15:04:06;10.98;;;7.60;;
2055;SDS011;1033;52.560;13.374;2022-11-20T15:06:48;11.70;;;9.13;;
2055;SDS011;1033;52.560;13.374;2022-11-20T15:09:21;12.70;;;7.97;;
2055;SDS011;1033;52.560;13.374;2022-11-20T15:11:52;11.15;;;7.50;;
2055;SDS011;1033;52.560;13.374;2022-11-20T15:14:24;13.57;;;7.40;;
2055;SDS011;1033;52.560;13.374;2022-11-20T15:16:56;13.30;;;8.10;;
2055;SDS011;1033;52.560;13.374;2022-11-20T15:19:25;11.77;;;8.38;;
2055;SDS011;1033;52.560;13.374;2022-11-20T15:21:54;11.70;;;7.60;;
2055;SDS011;1033;52.560;13.374;2022-11-20T15:24:24;12.20;;;6.97;;
2055;SDS011;1033;52.560;13.374;2022-11-20T15:26:53;10.52;;;7.60;;
2055;SDS011;1033;52.560;13.374;2022-11-20T15:29:22;7.97;;;7.18;;
2055;SDS011;1033;52.560;13.374;2022-11-20T15:31:51;16.42;;;9.15;;
2055;SDS011;1033;52.560;13.374;2022-11-20T15:34:21;14.30;;;7.57;;
2055;SDS011;1033;52.560;13.374;2022-11-20T15:36:49;12.00;;;7.50;;
2055;SDS011;1033;52.560;13.374;2022-11-20T15:39:19;13.18;;;7.45;;
2055;SDS011;1033;52.560;13.374;2022-11-20T15:41:49;18.25;;;9.00;;
2055;SDS011;1033;52.560;13.374;2022-11-20T15:44:18;11.23;;;6.88;;